sensor_id;sensor_type;location;lat;lon;timestamp;P1;durP1;ratioP1;P2;durP2;ratioP2
65737;SDS011;52478;51.844;6.582;2023-04-23T16:21:22;31.88;;;7.30;;
65737;SDS011;52478;51.844;6.582;2023-04-23T16:23:49;31.75;;;7.50;;
65737;SDS011;52478;51.844;6.582;2023-04-23T16:26:15;35.92;;;8.52;;
65737;SDS011;52478;51.844;6.582;2023-04-23T16:28:42;31.88;;;7.53;;
65737;SDS011;52478;51.844;6.582;2023-04-23T16:31:08;25.08;;;7.60;;
65737;SDS011;52478;51.844;6.582;2023-04-23T16:33:35;24.92;;;7.68;;
65737;SDS011;52478;51.844;6.582;2023-04-23T16:36:02;29.15;;;7.13;;
65737;SDS011;52478;51.844;6.582;2023-04-23T16:38:30;25.67;;;6.32;;
65737;SDS011;52478;51.844;6.582;2023-04-23T16:40:57;21.85;;;6.32;;
65737;SDS011;52478;51.844;6.582;2023-04-23T16:43:23;24.35;;;6.20;;
65737;SDS011;52478;51.844;6.582;2023-04-23T16:45:50;20.10;;;5.68;;
65737;SDS011;52478;51.844;6.582;2023-04-23T16:48:16;22.25;;;6.55;;
65737;SDS011;52478;51.844;6.582;2023-04-23T16:50:43;25.73;;;5.97;;
65737;SDS011;52478;51.844;6.582;2023-04-23T16:53:10;21.02;;;5.15;;
65737;SDS011;52478;51.844;6.582;2023-04-23T16:58:05;18.40;;;5.45;;
65737;SDS011;52478;51.844;6.582;2023-04-23T17:00:31;16.75;;;5.63;;
65737;SDS011;52478;51.844;6.582;2023-04-23T17:02:58;21.88;;;5.35;;
65737;SDS011;52478;51.844;6.582;2023-04-23T17:05:25;20.95;;;5.22;;
65737;SDS011;52478;51.844;6.582;2023-04-23T17:07:57;18.83;;;4.97;;
65737;SDS011;52478;51.844;6.582;2023-04-23T17:10:24;18.45;;;5.45;;
65737;SDS011;52478;51.844;6.582;2023-04-23T17:12:52;17.42;;;4.43;;
65737;SDS011;52478;51.844;6.582;2023-04-23T17:15:19;16.23;;;4.68;;
65737;SDS011;52478;51.844;6.582;2023-04-23T17:17:46;16.00;;;4.85;;
65737;SDS011;52478;51.844;6.582;2023-04-23T17:20:13;18.42;;;4.70;;
65737;SDS011;52478;51.844;6.582;2023-04-23T17:22:40;13.60;;;4.93;;
65737;SDS011;52478;51.844;6.582;2023-04-23T17:25:06;16.52;;;4.38;;
65737;SDS011;52478;51.844;6.582;2023-04-23T17:27:34;14.40;;;4.32;;
65737;SDS011;52478;51.844;6.582;2023-04-23T17:30:02;15.43;;;4.40;;
65737;SDS011;52478;51.844;6.582;2023-04-23T17:32:29;17.60;;;4.57;;
65737;SDS011;52478;51.844;6.582;2023-04-23T17:34:55;15.63;;;4.10;;
65737;SDS011;52478;51.844;6.582;2023-04-23T17:37:22;17.23;;;4.57;;
65737;SDS011;52478;51.844;6.582;2023-04-23T17:39:48;12.93;;;4.15;;
65737;SDS011;52478;51.844;6.582;2023-04-23T17:42:15;13.38;;;3.75;;
65737;SDS011;52478;51.844;6.582;2023-04-23T17:44:41;14.00;;;3.90;;
65737;SDS011;52478;51.844;6.582;2023-04-23T17:47:09;15.52;;;4.15;;
65737;SDS011;52478;51.844;6.582;2023-04-23T17:49:38;12.10;;;3.72;;
65737;SDS011;52478;51.844;6.582;2023-04-23T17:52:04;13.40;;;3.92;;
65737;SDS011;52478;51.844;6.582;2023-04-23T17:54:32;14.25;;;3.42;;
65737;SDS011;52478;51.844;6.582;2023-04-23T17:56:59;13.82;;;3.50;;
65737;SDS011;52478;51.844;6.582;2023-04-23T18:01:52;11.50;;;3.80;;
65737;SDS011;52478;51.844;6.582;2023-04-23T18:04:20;11.88;;;3.90;;
65737;SDS011;52478;51.844;6.582;2023-04-23T18:06:46;12.52;;;3.53;;
65737;SDS011;52478;51.844;6.582;2023-04-23T18:09:13;12.73;;;3.95;;
65737;SDS011;52478;51.844;6.582;2023-04-23T18:11:39;10.93;;;3.67;;
65737;SDS011;52478;51.844;6.582;2023-04-23T18:14:06;11.13;;;3.15;;
65737;SDS011;52478;51.844;6.582;2023-04-23T18:16:32;9.65;;;3.17;;
65737;SDS011;52478;51.844;6.582;2023-04-23T18:18:59;11.15;;;3.40;;
65737;SDS011;52478;51.844;6.582;2023-04-23T18:21:27;10.05;;;3.17;;
65737;SDS011;52478;51.844;6.582;2023-04-23T18:23:54;10.02;;;3.05;;
65737;SDS011;52478;51.844;6.582;2023-04-23T18:26:20;10.57;;;3.03;;
65737;SDS011;52478;51.844;6.582;2023-04-23T18:28:46;10.60;;;2.83;;
65737;SDS011;52478;51.844;6.582;2023-04-23T18:31:13;8.50;;;2.80;;
65737;SDS011;52478;51.844;6.582;2023-04-23T18:33:41;10.98;;;2.88;;
65737;SDS011;52478;51.844;6.582;2023-04-23T18:36:17;9.05;;;2.80;;
65737;SDS011;52478;51.844;6.582;2023-04-23T18:38:47;8.85;;;3.28;;
65737;SDS011;52478;51.844;6.582;2023-04-23T18:41:13;9.23;;;2.90;;
65737;SDS011;52478;51.844;6.582;2023-04-23T18:43:40;8.95;;;2.83;;
65737;SDS011;52478;51.844;6.582;2023-04-23T18:46:07;7.82;;;2.70;;
65737;SDS011;52478;51.844;6.582;2023-04-23T18:48:44;9.05;;;2.67;;
65737;SDS011;52478;51.844;6.582;2023-04-23T18:51:19;8.88;;;2.90;;
65737;SDS011;52478;51.844;6.582;2023-04-23T18:53:51;7.32;;;2.90;;
65737;SDS011;52478;51.844;6.582;2023-04-23T18:56:18;9.50;;;2.58;;
65737;SDS011;52478;51.844;6.582;2023-04-23T18:58:45;9.13;;;2.85;;
65737;SDS011;52478;51.844;6.582;2023-04-23T19:01:12;11.07;;;3.10;;
65737;SDS011;52478;51.844;6.582;2023-04-23T19:03:38;8.98;;;2.42;;
65737;SDS011;52478;51.844;6.582;2023-04-23T19:06:05;8.18;;;2.42;;
65737;SDS011;52478;51.844;6.582;2023-04-23T19:08:32;8.63;;;2.67;;
65737;SDS011;52478;51.844;6.582;2023-04-23T19:11:01;8.60;;;2.60;;
65737;SDS011;52478;51.844;6.582;2023-04-23T19:13:29;8.35;;;2.45;;
65737;SDS011;52478;51.844;6.582;2023-04-23T19:15:55;8.43;;;2.35;;
65737;SDS011;52478;51.844;6.582;2023-04-23T19:18:22;7.55;;;2.20;;
65737;SDS011;52478;51.844;6.582;2023-04-23T19:20:49;7.40;;;2.55;;
65737;SDS011;52478;51.844;6.582;2023-04-23T19:23:16;8.25;;;2.33;;
65737;SDS011;52478;51.844;6.582;2023-04-23T19:25:42;6.35;;;2.17;;
65737;SDS011;52478;51.844;6.582;2023-04-23T19:28:11;7.60;;;2.53;;
65737;SDS011;52478;51.844;6.582;2023-04-23T19:30:38;9.10;;;2.50;;
65737;SDS011;52478;51.844;6.582;2023-04-23T19:33:04;6.68;;;2.20;;
65737;SDS011;52478;51.844;6.582;2023-04-23T19:35:31;6.53;;;2.38;;
65737;SDS011;52478;51.844;6.582;2023-04-23T19:37:57;6.10;;;2.22;;
65737;SDS011;52478;51.844;6.582;2023-04-23T19:40:24;7.55;;;2.33;;
65737;SDS011;52478;51.844;6.582;2023-04-23T19:42:50;7.53;;;2.78;;
65737;SDS011;52478;51.844;6.582;2023-04-23T19:45:18;8.07;;;2.55;;
65737;SDS011;52478;51.844;6.582;2023-04-23T19:47:45;8.55;;;2.42;;
65737;SDS011;52478;51.844;6.582;2023-04-23T19:50:12;7.07;;;2.47;;
65737;SDS011;52478;51.844;6.582;2023-04-23T19:52:39;7.20;;;2.10;;
65737;SDS011;52478;51.844;6.582;2023-04-23T19:55:06;7.75;;;2.42;;
65737;SDS011;52478;51.844;6.582;2023-04-23T19:57:33;6.80;;;2.50;;
65737;SDS011;52478;51.844;6.582;2023-04-23T20:00:00;7.30;;;2.35;;
65737;SDS011;52478;51.844;6.582;2023-04-23T20:02:29;8.20;;;2.05;;
65737;SDS011;52478;51.844;6.582;2023-04-23T20:04:56;5.78;;;2.00;;
65737;SDS011;52478;51.844;6.582;2023-04-23T20:07:23;6.60;;;2.20;;
65737;SDS011;52478;51.844;6.582;2023-04-23T20:09:50;7.40;;;2.10;;
65737;SDS011;52478;51.844;6.582;2023-04-23T20:12:17;6.07;;;2.15;;
65737;SDS011;52478;51.844;6.582;2023-04-23T20:14:44;5.53;;;1.95;;
65737;SDS011;52478;51.844;6.582;2023-04-23T20:17:11;6.47;;;2.13;;
65737;SDS011;52478;51.844;6.582;2023-04-23T20:19:39;5.80;;;1.95;;
65737;SDS011;52478;51.844;6.582;2023-04-23T20:22:06;7.72;;;2.38;;
65737;SDS011;52478;51.844;6.582;2023-04-23T20:24:32;6.25;;;2.00;;
65737;SDS011;52478;51.844;6.582;2023-04-23T20:26:59;5.82;;;1.90;;
65737;SDS011;52478;51.844;6.582;2023-04-23T20:29:26;6.47;;;2.10;;
65737;SDS011;52478;51.844;6.582;2023-04-23T20:31:54;6.53;;;1.90;;
65737;SDS011;52478;51.844;6.582;2023-04-23T20:34:22;6.72;;;2.10;;
65737;SDS011;52478;51.844;6.582;2023-04-23T20:36:50;6.70;;;2.00;;
65737;SDS011;52478;51.844;6.582;2023-04-23T20:39:17;6.30;;;2.30;;
65737;SDS011;52478;51.844;6.582;2023-04-23T20:41:46;6.45;;;2.00;;
65737;SDS011;52478;51.844;6.582;2023-04-23T20:44:14;6.28;;;2.00;;
65737;SDS011;52478;51.844;6.582;2023-04-23T20:46:42;5.90;;;1.88;;
65737;SDS011;52478;51.844;6.582;2023-04-23T20:49:10;5.50;;;1.77;;
65737;SDS011;52478;51.844;6.582;2023-04-23T20:51:37;5.90;;;1.90;;
65737;SDS011;52478;51.844;6.582;2023-04-23T20:54:05;5.80;;;1.95;;
65737;SDS011;52478;51.844;6.582;2023-04-23T20:56:31;5.05;;;1.90;;
65737;SDS011;52478;51.844;6.582;2023-04-23T20:58:58;5.60;;;1.80;;
65737;SDS011;52478;51.844;6.582;2023-04-23T21:01:25;5.43;;;1.80;;
65737;SDS011;52478;51.844;6.582;2023-04-23T21:03:52;5.35;;;1.80;;
65737;SDS011;52478;51.844;6.582;2023-04-23T21:06:19;5.63;;;2.00;;
65737;SDS011;52478;51.844;6.582;2023-04-23T21:08:46;6.47;;;2.00;;
65737;SDS011;52478;51.844;6.582;2023-04-23T21:11:15;5.93;;;1.92;;
65737;SDS011;52478;51.844;6.582;2023-04-23T21:13:43;5.32;;;1.90;;
65737;SDS011;52478;51.844;6.582;2023-04-23T21:16:11;5.63;;;1.80;;
65737;SDS011;52478;51.844;6.582;2023-04-23T21:18:37;5.65;;;2.00;;
65737;SDS011;52478;51.844;6.582;2023-04-23T21:21:04;5.20;;;1.60;;
65737;SDS011;52478;51.844;6.582;2023-04-23T21:23:31;5.70;;;1.73;;
65737;SDS011;52478;51.844;6.582;2023-04-23T21:25:58;5.85;;;1.88;;
65737;SDS011;52478;51.844;6.582;2023-04-23T21:28:26;5.47;;;1.77;;
65737;SDS011;52478;51.844;6.582;2023-04-23T21:30:53;5.45;;;1.92;;
65737;SDS011;52478;51.844;6.582;2023-04-23T21:33:21;5.65;;;1.80;;
65737;SDS011;52478;51.844;6.582;2023-04-23T21:35:49;5.80;;;1.90;;
65737;SDS011;52478;51.844;6.582;2023-04-23T21:38:17;5.40;;;1.75;;
65737;SDS011;52478;51.844;6.582;2023-04-23T21:43:11;4.97;;;1.50;;
65737;SDS011;52478;51.844;6.582;2023-04-23T21:45:39;5.40;;;1.70;;
65737;SDS011;52478;51.844;6.582;2023-04-23T21:48:05;5.75;;;1.70;;
65737;SDS011;52478;51.844;6.582;2023-04-23T21:50:32;5.30;;;1.63;;
65737;SDS011;52478;51.844;6.582;2023-04-23T21:52:59;4.93;;;1.63;;
65737;SDS011;52478;51.844;6.582;2023-04-23T21:55:28;6.72;;;1.55;;
65737;SDS011;52478;51.844;6.582;2023-04-23T21:57:55;4.80;;;1.75;;
65737;SDS011;52478;51.844;6.582;2023-04-23T22:00:22;4.82;;;1.50;;
65737;SDS011;52478;51.844;6.582;2023-04-23T22:02:50;5.35;;;1.58;;
65737;SDS011;52478;51.844;6.582;2023-04-23T22:05:20;5.85;;;1.58;;
65737;SDS011;52478;51.844;6.582;2023-04-23T22:07:48;4.20;;;1.50;;
65737;SDS011;52478;51.844;6.582;2023-04-23T22:10:16;5.05;;;1.70;;
65737;SDS011;52478;51.844;6.582;2023-04-23T22:12:46;6.57;;;1.75;;
65737;SDS011;52478;51.844;6.582;2023-04-23T22:15:14;5.97;;;1.70;;
65737;SDS011;52478;51.844;6.582;2023-04-23T22:17:42;4.75;;;1.77;;
65737;SDS011;52478;51.844;6.582;2023-04-23T22:20:13;4.80;;;1.50;;
65737;SDS011;52478;51.844;6.582;2023-04-23T22:22:40;4.68;;;1.63;;
65737;SDS011;52478;51.844;6.582;2023-04-23T22:25:07;5.07;;;1.48;;
65737;SDS011;52478;51.844;6.582;2023-04-23T22:27:35;4.90;;;1.65;;
65737;SDS011;52478;51.844;6.582;2023-04-23T22:30:03;5.10;;;1.60;;
65737;SDS011;52478;51.844;6.582;2023-04-23T22:32:31;5.32;;;1.50;;
65737;SDS011;52478;51.844;6.582;2023-04-23T22:34:58;5.30;;;1.55;;
65737;SDS011;52478;51.844;6.582;2023-04-23T22:37:26;4.22;;;1.30;;
65737;SDS011;52478;51.844;6.582;2023-04-23T22:39:53;5.18;;;1.50;;
65737;SDS011;52478;51.844;6.582;2023-04-23T22:42:19;4.53;;;1.40;;
65737;SDS011;52478;51.844;6.582;2023-04-23T22:44:46;4.72;;;1.50;;
65737;SDS011;52478;51.844;6.582;2023-04-23T22:47:12;4.65;;;1.30;;
65737;SDS011;52478;51.844;6.582;2023-04-23T22:49:40;4.25;;;1.40;;
65737;SDS011;52478;51.844;6.582;2023-04-23T22:52:06;5.15;;;1.58;;
65737;SDS011;52478;51.844;6.582;2023-04-23T22:54:37;5.78;;;1.50;;
65737;SDS011;52478;51.844;6.582;2023-04-23T22:57:03;4.57;;;1.38;;
65737;SDS011;52478;51.844;6.582;2023-04-23T22:59:30;4.82;;;1.52;;
65737;SDS011;52478;51.844;6.582;2023-04-23T23:01:57;4.15;;;1.33;;
65737;SDS011;52478;51.844;6.582;2023-04-23T23:04:23;4.97;;;1.50;;
65737;SDS011;52478;51.844;6.582;2023-04-23T23:06:50;5.80;;;1.50;;
65737;SDS011;52478;51.844;6.582;2023-04-23T23:09:16;4.70;;;1.42;;
65737;SDS011;52478;51.844;6.582;2023-04-23T23:11:44;4.55;;;1.30;;
65737;SDS011;52478;51.844;6.582;2023-04-23T23:14:10;4.32;;;1.40;;
65737;SDS011;52478;51.844;6.582;2023-04-23T23:16:37;3.53;;;1.23;;
65737;SDS011;52478;51.844;6.582;2023-04-23T23:19:03;4.45;;;1.30;;
65737;SDS011;52478;51.844;6.582;2023-04-23T23:21:30;4.65;;;1.50;;
65737;SDS011;52478;51.844;6.582;2023-04-23T23:23:57;3.45;;;1.23;;
65737;SDS011;52478;51.844;6.582;2023-04-23T23:26:24;4.60;;;1.30;;
65737;SDS011;52478;51.844;6.582;2023-04-23T23:28:52;4.40;;;1.50;;
65737;SDS011;52478;51.844;6.582;2023-04-23T23:31:18;5.05;;;1.60;;
65737;SDS011;52478;51.844;6.582;2023-04-23T23:33:45;3.97;;;1.23;;
65737;SDS011;52478;51.844;6.582;2023-04-23T23:36:12;4.60;;;1.40;;
65737;SDS011;52478;51.844;6.582;2023-04-23T23:38:38;4.43;;;1.30;;
65737;SDS011;52478;51.844;6.582;2023-04-23T23:41:05;3.85;;;1.30;;
65737;SDS011;52478;51.844;6.582;2023-04-23T23:43:31;3.58;;;1.25;;
65737;SDS011;52478;51.844;6.582;2023-04-23T23:45:59;3.83;;;1.17;;
65737;SDS011;52478;51.844;6.582;2023-04-23T23:48:25;3.80;;;1.20;;
65737;SDS011;52478;51.844;6.582;2023-04-23T23:50:53;3.63;;;1.20;;
65737;SDS011;52478;51.844;6.582;2023-04-23T23:53:20;3.97;;;1.20;;
65737;SDS011;52478;51.844;6.582;2023-04-23T23:55:46;4.35;;;1.30;;
65737;SDS011;52478;51.844;6.582;2023-04-23T23:58:13;4.80;;;1.33;;
